Time;durP1;ratioP1;P1;durP2;ratioP2;P2;SDS_P1;SDS_P2;PMS_P1;PMS_P2;Temp;Humidity;BMP_temperature;BMP_pressure;BME280_temperature;BME280_humidity;BME280_pressure;Samples;Min_cycle;Max_cycle;Signal;HPM_P1;HPM_P2
2021/08/29 00:00:08;;;;;;;7.25;3.30;;;;;;;12.79;100.00;97980.03;4986907;28;20030;-61
2021/08/29 00:02:33;;;;;;;8.45;4.03;;;;;;;12.34;100.00;97970.00;4985583;28;20571;-62
2021/08/29 00:04:58;;;;;;;4.70;3.50;;;;;;;12.56;100.00;97966.34;4988034;28;20201;-63
2021/08/29 00:07:24;;;;;;;5.75;3.70;;;;;;;12.74;99.76;97964.56;4990214;28;20030;-63
2021/08/29 00:09:49;;;;;;;7.20;2.90;;;;;;;12.85;99.59;97957.03;4988617;28;20034;-62
2021/08/29 00:12:14;;;;;;;5.43;3.50;;;;;;;12.70;98.47;97955.16;4989566;28;20044;-62
2021/08/29 00:14:40;;;;;;;5.07;3.72;;;;;;;12.58;99.33;97956.63;4988204;28;20589;-63
2021/08/29 00:17:06;;;;;;;6.00;3.88;;;;;;;12.62;99.21;97952.09;4987234;28;20101;-61
2021/08/29 00:19:34;;;;;;;4.53;3.33;;;;;;;12.70;100.00;97957.78;4993412;28;20038;-62
2021/08/29 00:21:59;;;;;;;9.65;3.83;;;;;;;12.49;100.00;97957.94;4991856;28;20058;-61
2021/08/29 00:24:24;;;;;;;6.57;3.80;;;;;;;12.69;100.00;97956.09;4991956;28;20030;-61
2021/08/29 00:26:50;;;;;;;5.95;3.80;;;;;;;12.71;99.43;97960.31;4992136;28;20504;-60
2021/08/29 00:29:15;;;;;;;6.18;4.10;;;;;;;12.75;98.74;97953.16;4994740;28;20365;-63
2021/08/29 00:31:40;;;;;;;11.88;4.60;;;;;;;12.59;98.64;97958.34;4992087;28;20042;-61
2021/08/29 00:34:06;;;;;;;7.15;4.22;;;;;;;12.49;99.61;97954.47;4996802;28;20022;-60
2021/08/29 00:36:31;;;;;;;6.15;3.70;;;;;;;12.46;100.00;97950.25;4993177;28;20030;-61
2021/08/29 00:38:56;;;;;;;4.97;3.80;;;;;;;12.56;99.31;97952.41;4992905;28;20034;-61
2021/08/29 00:41:22;;;;;;;4.85;3.40;;;;;;;12.48;100.00;97945.78;4990767;28;20041;-62
2021/08/29 00:43:47;;;;;;;5.15;4.00;;;;;;;12.25;100.00;97948.69;4992835;28;20037;-62
2021/08/29 00:46:12;;;;;;;8.85;3.58;;;;;;;12.57;100.00;97946.25;4991288;28;20109;-61
2021/08/29 00:48:43;;;;;;;6.50;3.50;;;;;;;12.47;99.39;97948.47;4992361;28;20037;-61
2021/08/29 00:51:09;;;;;;;5.22;3.83;;;;;;;12.58;99.37;97950.56;4991414;28;20462;-61
2021/08/29 00:53:34;;;;;;;4.85;3.30;;;;;;;12.54;100.00;97937.63;4991187;28;20021;-61
2021/08/29 00:55:59;;;;;;;6.43;3.47;;;;;;;12.66;97.55;97940.53;4992264;28;20034;-62
2021/08/29 00:58:26;;;;;;;4.70;2.92;;;;;;;12.67;99.50;97939.63;4991903;28;20034;-61
2021/08/29 01:00:54;;;;;;;6.45;3.80;;;;;;;12.34;99.46;97941.22;4991823;28;20073;-61
2021/08/29 01:03:24;;;;;;;6.03;3.78;;;;;;;12.47;99.19;97944.09;4994362;28;20071;-61
2021/08/29 01:06:13;;;;;;;4.55;3.13;;;;;;;12.64;98.37;97942.41;4990259;28;20065;-63
2021/08/29 01:08:41;;;;;;;6.15;3.60;;;;;;;12.24;100.00;97941.75;4996007;28;20246;-61
2021/08/29 01:11:14;;;;;;;5.22;3.50;;;;;;;12.32;100.00;97944.84;4990852;28;20040;-63
2021/08/29 01:13:47;;;;;;;6.53;3.80;;;;;;;12.37;99.60;97945.47;4993418;28;20035;-63
2021/08/29 01:16:18;;;;;;;7.68;3.72;;;;;;;12.42;99.38;97940.84;4991529;28;20042;-63
2021/08/29 01:18:47;;;;;;;3.80;2.80;;;;;;;12.76;99.17;97944.41;4992738;28;20026;-61
2021/08/29 01:21:15;;;;;;;5.32;3.22;;;;;;;12.53;99.49;97943.81;4992117;28;20030;-62
2021/08/29 01:23:43;;;;;;;5.32;3.47;;;;;;;12.38;98.73;97944.53;4990135;28;20052;-62
2021/08/29 01:26:27;;;;;;;6.80;3.30;;;;;;;12.33;99.55;97951.75;4990432;28;20096;-62
2021/08/29 01:28:59;;;;;;;3.88;2.70;;;;;;;12.49;99.71;97947.47;4990169;28;20038;-60
2021/08/29 01:31:29;;;;;;;5.78;3.40;;;;;;;12.30;100.00;97949.31;4991371;28;20500;-61
2021/08/29 01:33:57;;;;;;;5.75;3.33;;;;;;;12.47;97.93;97957.16;4988535;28;20033;-63
2021/08/29 01:36:24;;;;;;;6.50;3.67;;;;;;;12.09;100.00;97954.66;4990997;28;20061;-59
2021/08/29 01:38:50;;;;;;;5.13;3.47;;;;;;;12.39;99.49;97948.88;4988905;28;20050;-62
2021/08/29 01:41:17;;;;;;;6.93;3.30;;;;;;;12.46;98.74;97952.88;4993951;28;20058;-62
2021/08/29 01:43:44;;;;;;;6.43;3.47;;;;;;;12.32;98.39;97955.31;4990505;28;20022;-61
2021/08/29 01:46:10;;;;;;;7.30;3.80;;;;;;;11.95;100.00;97957.09;4991101;28;20041;-63
2021/08/29 01:48:39;;;;;;;4.82;3.40;;;;;;;12.38;99.69;97956.78;4989295;28;20025;-61
2021/08/29 01:51:05;;;;;;;5.35;3.22;;;;;;;12.47;99.24;97949.31;4992811;28;20034;-62
2021/08/29 01:53:30;;;;;;;4.55;3.08;;;;;;;12.28;99.59;97952.00;4990937;28;20601;-61
2021/08/29 01:55:56;;;;;;;7.28;3.80;;;;;;;12.32;98.37;97955.31;4990725;28;20062;-61
2021/08/29 01:58:21;;;;;;;6.00;3.40;;;;;;;12.67;96.63;97944.88;4989232;28;20027;-63
2021/08/29 02:00:54;;;;;;;4.93;2.97;;;;;;;12.58;98.19;97945.34;4988342;28;20116;-60
2021/08/29 02:03:20;;;;;;;4.30;3.20;;;;;;;12.49;98.78;97944.84;4991384;28;20104;-61
2021/08/29 02:05:53;;;;;;;5.72;3.75;;;;;;;12.49;97.70;97947.47;4993146;28;20034;-60
2021/08/29 02:08:19;;;;;;;4.88;3.28;;;;;;;12.42;98.89;97945.25;4993297;28;20076;-62
2021/08/29 02:10:49;;;;;;;4.60;3.45;;;;;;;12.28;100.00;97945.94;4999922;28;20046;-61
2021/08/29 02:13:15;;;;;;;4.38;3.30;;;;;;;12.36;99.04;97941.16;4992098;28;20555;-62
2021/08/29 02:15:51;;;;;;;5.78;3.13;;;;;;;12.65;98.40;97931.84;4993710;28;20038;-61
2021/08/29 02:18:21;;;;;;;4.28;3.28;;;;;;;12.42;100.00;97937.38;4990713;28;20121;-62
2021/08/29 02:20:48;;;;;;;4.50;3.40;;;;;;;12.57;97.56;97926.16;4990953;28;20030;-63
2021/08/29 02:23:16;;;;;;;6.35;3.40;;;;;;;12.52;99.63;97931.63;4991652;28;20052;-62
2021/08/29 02:25:45;;;;;;;7.38;3.70;;;;;;;12.79;96.89;97928.56;4992192;28;20057;-63
2021/08/29 02:28:11;;;;;;;4.38;3.25;;;;;;;12.38;99.72;97928.84;4992116;28;20030;-63
2021/08/29 02:30:36;;;;;;;8.07;3.85;;;;;;;12.34;100.00;97928.16;4992064;28;20033;-61
2021/08/29 02:33:02;;;;;;;4.55;3.40;;;;;;;12.54;98.94;97924.53;4990802;28;20407;-61
2021/08/29 02:35:28;;;;;;;5.57;3.30;;;;;;;12.90;97.49;97923.63;4989755;28;20045;-63
2021/08/29 02:37:54;;;;;;;4.35;3.35;;;;;;;12.16;100.00;97921.22;4989260;28;20038;-60
2021/08/29 02:40:21;;;;;;;5.18;3.40;;;;;;;12.56;98.56;97918.41;4991547;28;20492;-61
2021/08/29 02:42:48;;;;;;;7.05;3.80;;;;;;;12.60;98.73;97923.38;4988925;28;20585;-62
2021/08/29 02:45:14;;;;;;;5.57;3.10;;;;;;;12.73;97.64;97918.38;4987234;28;20037;-63
2021/08/29 02:47:40;;;;;;;4.25;3.28;;;;;;;12.59;99.80;97913.00;4988758;28;20036;-61
2021/08/29 02:50:07;;;;;;;8.23;3.55;;;;;;;12.34;99.12;97927.31;4989067;28;20026;-61
2021/08/29 02:52:32;;;;;;;6.82;3.80;;;;;;;12.39;99.27;97920.09;4989120;28;20070;-61
2021/08/29 02:54:58;;;;;;;6.57;3.53;;;;;;;12.62;98.13;97918.09;4990173;28;20057;-61
2021/08/29 02:57:32;;;;;;;5.35;3.47;;;;;;;12.64;98.13;97924.09;4989288;28;20492;-62
2021/08/29 02:59:57;;;;;;;3.75;2.97;;;;;;;12.67;98.31;97923.94;4991371;28;20443;-62
2021/08/29 03:02:23;;;;;;;5.97;3.50;;;;;;;12.65;97.16;97912.72;4988690;28;20563;-59
2021/08/29 03:04:48;;;;;;;5.35;2.80;;;;;;;12.82;98.31;97923.16;4990422;28;20061;-60
2021/08/29 03:07:14;;;;;;;5.22;3.35;;;;;;;12.54;98.51;97921.09;4990117;28;20369;-62
2021/08/29 03:09:39;;;;;;;4.82;3.35;;;;;;;12.74;98.37;97920.09;4987362;28;20408;-62
2021/08/29 03:12:08;;;;;;;7.13;3.40;;;;;;;12.45;99.04;97919.78;4989148;28;20042;-61
2021/08/29 03:14:34;;;;;;;6.82;3.53;;;;;;;12.41;100.00;97922.63;4989865;28;20036;-59
2021/08/29 03:17:00;;;;;;;4.78;3.50;;;;;;;12.53;98.79;97917.63;4989546;28;20049;-62
2021/08/29 03:19:26;;;;;;;7.00;3.10;;;;;;;12.76;98.35;97912.16;4987526;28;20105;-59
2021/08/29 03:21:52;;;;;;;4.97;3.22;;;;;;;12.65;99.08;97910.09;4988053;28;20121;-61
2021/08/29 03:24:22;;;;;;;10.77;3.75;;;;;;;12.38;99.60;97907.91;4990369;28;20076;-61
2021/08/29 03:26:48;;;;;;;4.70;3.17;;;;;;;12.72;98.24;97906.25;4992265;28;20141;-60
2021/08/29 03:29:14;;;;;;;5.35;3.22;;;;;;;12.82;97.23;97896.97;4987167;28;20597;-61
2021/08/29 03:31:40;;;;;;;5.90;2.97;;;;;;;12.83;97.95;97895.19;4987172;28;20048;-63
2021/08/29 03:34:06;;;;;;;8.35;3.80;;;;;;;12.54;99.64;97895.78;4991940;28;20527;-61
2021/08/29 03:36:33;;;;;;;5.00;3.70;;;;;;;12.74;97.94;97893.91;4989130;28;20066;-62
2021/08/29 03:39:02;;;;;;;6.60;3.88;;;;;;;12.77;96.69;97893.75;4988088;28;20054;-60
2021/08/29 03:41:29;;;;;;;6.25;3.60;;;;;;;12.81;96.78;97897.91;4987621;28;20042;-60
2021/08/29 03:43:55;;;;;;;8.20;3.83;;;;;;;12.59;98.20;97897.28;4990113;28;20030;-61
2021/08/29 03:46:22;;;;;;;5.43;3.55;;;;;;;12.76;97.53;97892.06;4988098;28;20049;-63
2021/08/29 03:48:48;;;;;;;4.85;3.10;;;;;;;12.91;98.35;97898.28;4988234;28;20026;-60
2021/08/29 03:51:16;;;;;;;4.90;3.33;;;;;;;12.88;97.51;97891.44;4987646;28;20434;-62
2021/08/29 03:53:42;;;;;;;5.80;3.80;;;;;;;12.59;99.05;97894.69;4990830;28;20041;-61
2021/08/29 03:56:10;;;;;;;5.07;3.20;;;;;;;12.91;98.51;97887.81;4985924;28;20037;-61
2021/08/29 03:58:38;;;;;;;6.28;3.60;;;;;;;12.62;100.00;97889.31;4990302;28;20045;-61
2021/08/29 04:01:04;;;;;;;3.80;2.72;;;;;;;13.18;96.77;97888.13;4986060;28;20035;-61
2021/08/29 04:03:30;;;;;;;4.68;3.47;;;;;;;12.77;97.95;97885.88;5008843;28;20038;-60
2021/08/29 04:05:58;;;;;;;4.20;2.92;;;;;;;13.29;95.47;97885.78;4987577;28;20819;-63
2021/08/29 04:08:35;;;;;;;6.18;3.80;;;;;;;13.08;95.88;97881.66;4990024;28;20038;-60
2021/08/29 04:11:01;;;;;;;4.45;3.35;;;;;;;12.99;97.03;97883.00;4986528;28;20684;-61
2021/08/29 04:13:29;;;;;;;9.60;3.90;;;;;;;12.76;97.86;97880.75;4988078;28;20118;-62
2021/08/29 04:15:55;;;;;;;9.20;4.30;;;;;;;12.48;100.00;97883.00;4985614;28;20042;-60
2021/08/29 04:18:22;;;;;;;7.45;4.20;;;;;;;12.39;100.00;97878.25;4987063;28;20074;-62
2021/08/29 04:20:48;;;;;;;6.60;4.00;;;;;;;12.73;100.00;97882.56;4988949;28;20034;-60
2021/08/29 04:23:13;;;;;;;6.13;3.78;;;;;;;12.71;100.00;97878.34;4987091;28;20076;-60
2021/08/29 04:25:39;;;;;;;4.63;3.58;;;;;;;12.90;98.89;97876.50;4991694;28;20050;-62
2021/08/29 04:28:05;;;;;;;7.45;4.00;;;;;;;12.85;99.83;97890.75;4986832;28;20026;-60
2021/08/29 04:30:30;;;;;;;8.38;3.60;;;;;;;13.10;98.73;97879.81;4990492;28;20230;-61
2021/08/29 04:32:56;;;;;;;5.43;3.97;;;;;;;12.90;98.76;97881.72;4986823;28;20030;-62
2021/08/29 04:35:21;;;;;;;5.40;3.55;;;;;;;13.23;97.66;97880.88;4985859;28;20095;-63
2021/08/29 04:37:47;;;;;;;5.22;3.58;;;;;;;13.17;96.76;97886.41;4985569;28;20034;-60
2021/08/29 04:40:14;;;;;;;5.97;3.92;;;;;;;13.22;96.05;97876.53;4985520;28;20022;-61
2021/08/29 04:42:40;;;;;;;5.10;3.83;;;;;;;13.12;97.96;97877.94;4988662;28;20041;-60
2021/08/29 04:45:07;;;;;;;7.80;3.80;;;;;;;13.35;97.71;97887.25;4987918;28;20034;-62
2021/08/29 04:47:33;;;;;;;5.45;3.90;;;;;;;13.33;98.50;97886.47;4989091;28;20026;-59
2021/08/29 04:49:58;;;;;;;9.82;4.32;;;;;;;13.35;98.07;97878.53;4990311;28;20052;-61
2021/08/29 04:52:23;;;;;;;7.10;4.38;;;;;;;13.21;99.20;97882.69;4987614;28;20125;-62
2021/08/29 04:54:49;;;;;;;6.20;3.75;;;;;;;13.19;99.66;97879.31;4988357;28;20121;-60
2021/08/29 04:57:14;;;;;;;5.47;4.10;;;;;;;13.05;99.73;97887.06;4987215;28;20037;-60
2021/08/29 04:59:39;;;;;;;6.47;4.03;;;;;;;13.19;99.77;97886.34;4987416;28;20119;-62
2021/08/29 05:02:05;;;;;;;6.63;4.20;;;;;;;12.93;100.00;97871.06;4987386;28;20058;-60
2021/08/29 05:04:30;;;;;;;7.32;4.53;;;;;;;13.00;100.00;97882.09;4997513;28;20034;-62
2021/08/29 05:06:55;;;;;;;5.22;3.80;;;;;;;12.96;100.00;97880.56;4992137;28;20971;-61
2021/08/29 05:09:21;;;;;;;5.38;3.83;;;;;;;13.38;98.45;97878.34;4990679;28;20084;-60
2021/08/29 05:11:46;;;;;;;5.53;3.95;;;;;;;13.39;98.56;97890.53;4993183;28;20037;-60
2021/08/29 05:14:11;;;;;;;7.80;4.38;;;;;;;13.13;99.34;97884.91;4991617;28;20030;-61
2021/08/29 05:16:37;;;;;;;7.97;4.40;;;;;;;13.09;100.00;97894.69;4989801;28;20038;-63
2021/08/29 05:19:02;;;;;;;7.75;4.18;;;;;;;13.04;100.00;97901.09;4998542;28;20053;-61
2021/08/29 05:21:27;;;;;;;7.05;4.25;;;;;;;13.07;100.00;97896.53;4992432;28;20526;-61
2021/08/29 05:23:54;;;;;;;6.72;3.70;;;;;;;13.41;98.88;97893.91;4993494;28;20022;-60
2021/08/29 05:26:19;;;;;;;6.38;4.40;;;;;;;13.29;98.66;97904.09;4990305;28;20038;-62
2021/08/29 05:28:44;;;;;;;7.18;4.57;;;;;;;13.46;97.74;97891.91;4989697;28;20037;-60
2021/08/29 05:31:09;;;;;;;6.55;4.85;;;;;;;13.13;100.00;97894.53;4990532;28;20042;-62
2021/08/29 05:33:35;;;;;;;7.88;4.40;;;;;;;13.27;100.00;97890.25;4988941;28;20030;-61
2021/08/29 05:36:00;;;;;;;7.75;4.65;;;;;;;13.05;100.00;97893.16;4992655;28;20038;-61
2021/08/29 05:38:25;;;;;;;7.97;5.53;;;;;;;13.10;100.00;97893.78;4991024;28;20199;-62
2021/08/29 05:40:51;;;;;;;8.80;5.72;;;;;;;13.04;100.00;97895.84;4988254;28;20551;-61
2021/08/29 05:43:16;;;;;;;9.88;5.88;;;;;;;13.19;100.00;97894.19;4991776;28;20042;-62
2021/08/29 05:45:41;;;;;;;6.95;5.18;;;;;;;13.17;100.00;97898.69;4988421;28;20038;-61
2021/08/29 05:48:07;;;;;;;9.52;6.55;;;;;;;12.99;100.00;97893.47;4991042;28;20037;-62
2021/08/29 05:50:32;;;;;;;11.02;6.50;;;;;;;13.07;100.00;97893.09;4991467;28;20033;-61
2021/08/29 05:52:57;;;;;;;7.72;5.15;;;;;;;13.09;100.00;97893.84;4989929;28;20023;-60
2021/08/29 05:55:23;;;;;;;11.48;7.03;;;;;;;12.99;100.00;97898.69;4989134;28;20501;-60
2021/08/29 05:57:48;;;;;;;9.05;6.18;;;;;;;13.09;100.00;97896.47;4995487;28;20377;-60
2021/08/29 06:00:14;;;;;;;9.93;6.53;;;;;;;13.32;100.00;97897.03;4993375;28;20692;-60
2021/08/29 06:02:39;;;;;;;12.73;6.60;;;;;;;13.04;100.00;97901.09;4990597;28;20038;-60
2021/08/29 06:05:05;;;;;;;11.18;6.32;;;;;;;12.79;100.00;97899.78;4988507;28;20403;-61
2021/08/29 06:07:30;;;;;;;11.75;7.40;;;;;;;12.79;100.00;97912.84;4989411;28;20026;-61
2021/08/29 06:09:55;;;;;;;9.70;5.90;;;;;;;12.98;100.00;97906.66;4989343;28;20049;-62
2021/08/29 06:12:21;;;;;;;9.45;6.20;;;;;;;13.08;100.00;97905.22;4990460;28;20139;-60
2021/08/29 06:14:46;;;;;;;10.18;6.55;;;;;;;13.03;100.00;97909.88;4991371;28;20049;-62
2021/08/29 06:17:11;;;;;;;10.45;6.45;;;;;;;13.13;100.00;97900.59;4992218;28;20765;-61
2021/08/29 06:19:37;;;;;;;12.90;7.30;;;;;;;13.14;100.00;97902.31;4990479;28;20022;-63
2021/08/29 06:22:02;;;;;;;19.52;7.55;;;;;;;13.04;100.00;97895.84;4989011;28;20861;-63
2021/08/29 06:24:28;;;;;;;16.50;6.65;;;;;;;13.20;100.00;97895.91;4992257;28;20159;-61
2021/08/29 06:26:53;;;;;;;12.07;7.22;;;;;;;13.19;100.00;97897.66;4989672;28;20045;-60
2021/08/29 06:29:19;;;;;;;12.60;6.82;;;;;;;13.12;100.00;97896.28;4989270;28;20030;-61
2021/08/29 06:31:44;;;;;;;13.65;7.88;;;;;;;13.15;100.00;97898.75;4988901;28;20053;-59
2021/08/29 06:34:10;;;;;;;13.18;7.15;;;;;;;13.03;100.00;97896.78;4989814;28;20030;-59
2021/08/29 06:36:35;;;;;;;12.63;7.60;;;;;;;13.08;100.00;97902.63;4988688;28;20108;-59
2021/08/29 06:39:00;;;;;;;12.10;6.78;;;;;;;13.23;100.00;97895.72;4990286;28;20115;-60
2021/08/29 06:41:26;;;;;;;12.35;7.20;;;;;;;13.21;100.00;97898.41;4988796;28;20042;-61
2021/08/29 06:43:53;;;;;;;12.07;6.80;;;;;;;13.33;100.00;97890.88;4989162;28;20022;-60
2021/08/29 06:46:19;;;;;;;11.73;6.57;;;;;;;13.48;100.00;97895.28;4988523;28;20039;-61
2021/08/29 06:48:44;;;;;;;11.52;6.95;;;;;;;13.41;100.00;97901.78;4987661;28;20243;-59
2021/08/29 06:51:09;;;;;;;10.00;6.28;;;;;;;13.82;100.00;97898.66;4990500;28;20095;-61
2021/08/29 06:53:34;;;;;;;7.05;5.28;;;;;;;13.86;100.00;97894.94;4987315;28;20033;-59
2021/08/29 06:56:00;;;;;;;9.05;6.18;;;;;;;13.81;100.00;97891.75;4986174;28;20038;-59
2021/08/29 06:58:25;;;;;;;11.48;6.50;;;;;;;13.77;100.00;97895.47;4989174;28;20037;-61
2021/08/29 07:00:50;;;;;;;11.07;6.03;;;;;;;13.78;100.00;97892.72;4989906;28;20795;-59
2021/08/29 07:03:16;;;;;;;12.27;6.72;;;;;;;13.74;100.00;97896.47;4990956;28;20033;-59
2021/08/29 07:05:41;;;;;;;11.80;6.72;;;;;;;13.62;100.00;97895.38;4987761;28;20504;-60
2021/08/29 07:08:06;;;;;;;7.43;5.20;;;;;;;13.82;100.00;97896.03;4990938;28;20027;-60
2021/08/29 07:10:32;;;;;;;8.07;5.40;;;;;;;13.88;100.00;97893.91;4987163;28;20041;-60
2021/08/29 07:12:57;;;;;;;9.35;6.30;;;;;;;14.03;100.00;97894.00;4985649;28;20026;-61
2021/08/29 07:15:22;;;;;;;11.13;6.45;;;;;;;14.06;100.00;97888.56;4986719;28;20400;-60
2021/08/29 07:17:47;;;;;;;7.90;5.80;;;;;;;14.02;100.00;97890.53;4987658;28;20053;-61
2021/08/29 07:20:13;;;;;;;9.88;6.20;;;;;;;14.19;100.00;97892.19;4987810;28;20042;-62
2021/08/29 07:22:38;;;;;;;10.57;6.72;;;;;;;14.21;100.00;97894.72;4988881;28;20014;-61
2021/08/29 07:25:04;;;;;;;8.82;5.57;;;;;;;14.22;100.00;97889.38;4989751;28;20041;-60
2021/08/29 07:27:29;;;;;;;8.43;5.55;;;;;;;14.40;100.00;97890.09;4989299;28;20026;-60
2021/08/29 07:29:55;;;;;;;10.15;6.40;;;;;;;14.32;100.00;97892.31;4992833;28;20038;-61
2021/08/29 07:32:20;;;;;;;11.88;6.82;;;;;;;14.17;100.00;97898.44;4991668;28;20038;-61
2021/08/29 07:34:46;;;;;;;11.07;6.70;;;;;;;14.61;100.00;97895.91;4992088;28;20041;-59
2021/08/29 07:37:11;;;;;;;10.88;6.07;;;;;;;14.67;100.00;97886.81;4987665;28;20142;-60
2021/08/29 07:39:36;;;;;;;10.45;6.70;;;;;;;14.08;100.00;97894.59;4989403;28;20025;-60
2021/08/29 07:42:02;;;;;;;11.13;7.43;;;;;;;14.13;100.00;97889.06;4991595;28;20149;-60
2021/08/29 07:44:27;;;;;;;10.98;6.22;;;;;;;14.83;100.00;97882.34;4989134;28;20034;-60
2021/08/29 07:46:52;;;;;;;7.80;5.40;;;;;;;15.00;100.00;97889.19;4989115;28;20033;-60
2021/08/29 07:49:20;;;;;;;9.13;5.93;;;;;;;15.28;100.00;97886.66;4987573;28;20060;-61
2021/08/29 07:51:45;;;;;;;10.25;6.70;;;;;;;15.16;100.00;97883.84;4989117;28;20026;-61
2021/08/29 07:54:11;;;;;;;10.75;6.65;;;;;;;15.39;98.75;97886.84;4989787;28;20068;-61
2021/08/29 07:56:36;;;;;;;7.95;5.78;;;;;;;15.78;98.16;97885.28;4986939;28;20030;-61
2021/08/29 07:59:01;;;;;;;8.27;5.20;;;;;;;15.31;99.32;97896.97;4990314;28;20026;-60
2021/08/29 08:01:27;;;;;;;9.25;5.90;;;;;;;15.60;97.80;97893.38;4988165;28;20100;-60
2021/08/29 08:03:52;;;;;;;7.90;5.65;;;;;;;15.31;99.75;97891.72;4988856;28;20030;-61
2021/08/29 08:06:17;;;;;;;8.57;5.28;;;;;;;15.81;98.01;97890.34;4996709;28;20140;-61
2021/08/29 08:08:43;;;;;;;7.78;5.47;;;;;;;15.75;95.90;97890.72;4990398;28;20073;-61
2021/08/29 08:11:08;;;;;;;6.25;4.70;;;;;;;15.55;96.87;97884.94;4987194;28;20084;-60
2021/08/29 08:13:33;;;;;;;5.82;4.47;;;;;;;15.68;96.71;97889.41;4987907;28;20026;-60
2021/08/29 08:16:00;;;;;;;6.28;4.32;;;;;;;15.96;92.48;97883.25;4988804;28;20413;-63
2021/08/29 08:18:26;;;;;;;6.60;4.45;;;;;;;16.64;93.24;97886.69;4986003;28;20504;-61
2021/08/29 08:20:52;;;;;;;5.15;3.60;;;;;;;16.92;91.17;97885.69;4990556;28;20547;-63
2021/08/29 08:23:17;;;;;;;5.07;3.72;;;;;;;16.83;88.42;97886.31;4988292;28;20025;-64
2021/08/29 08:25:45;;;;;;;4.70;3.20;;;;;;;17.09;87.76;97890.66;4986945;28;20062;-61
2021/08/29 08:28:10;;;;;;;4.10;3.05;;;;;;;17.60;86.55;97887.06;4987490;28;20029;-62
2021/08/29 08:30:36;;;;;;;5.18;3.17;;;;;;;17.60;85.73;97888.88;4988614;28;20046;-62
2021/08/29 08:33:01;;;;;;;4.70;3.00;;;;;;;18.03;83.43;97880.50;4987681;28;20030;-60
2021/08/29 08:35:27;;;;;;;5.22;3.00;;;;;;;18.85;83.90;97878.75;4991865;28;20038;-61
2021/08/29 08:37:52;;;;;;;7.88;4.00;;;;;;;18.83;80.91;97875.41;4991350;28;20030;-63
2021/08/29 08:40:21;;;;;;;4.30;3.08;;;;;;;19.04;77.54;97880.84;4990709;28;20030;-62
2021/08/29 08:42:47;;;;;;;3.88;2.50;;;;;;;19.77;75.76;97883.94;4993344;28;20046;-62
2021/08/29 08:45:13;;;;;;;3.20;2.30;;;;;;;20.71;71.24;97875.41;4989692;28;20496;-61
2021/08/29 08:47:43;;;;;;;3.55;1.90;;;;;;;21.19;66.22;97872.16;4989674;28;20018;-61
2021/08/29 08:50:10;;;;;;;2.60;1.90;;;;;;;22.33;62.18;97878.94;4990720;28;20030;-64
2021/08/29 08:52:37;;;;;;;2.50;1.70;;;;;;;21.16;65.18;97875.09;4992354;28;20443;-61
2021/08/29 08:55:03;;;;;;;2.35;1.52;;;;;;;21.58;63.99;97869.72;4994054;28;20041;-60
2021/08/29 08:57:28;;;;;;;2.67;1.67;;;;;;;21.55;65.28;97869.97;4990343;28;20121;-60
2021/08/29 08:59:54;;;;;;;3.15;1.90;;;;;;;21.41;64.45;97862.34;4990935;28;20132;-62
2021/08/29 09:02:21;;;;;;;1.90;1.30;;;;;;;22.22;61.00;97865.75;4989036;28;20853;-60
2021/08/29 09:04:47;;;;;;;2.03;1.30;;;;;;;23.45;58.03;97862.31;4989857;28;20037;-61
2021/08/29 09:07:13;;;;;;;2.38;1.40;;;;;;;21.27;63.21;97867.06;4990279;28;20044;-62
2021/08/29 09:09:39;;;;;;;1.90;1.30;;;;;;;21.92;62.85;97856.06;4993517;28;20026;-63
2021/08/29 09:12:05;;;;;;;2.20;1.50;;;;;;;20.70;65.16;97863.97;4992649;28;20046;-63
2021/08/29 09:14:45;;;;;;;3.58;1.52;;;;;;;21.34;64.93;97857.59;4990874;28;20036;-61
2021/08/29 09:17:24;;;;;;;2.47;1.50;;;;;;;22.49;59.90;97862.38;4991014;28;20041;-61
2021/08/29 09:19:50;;;;;;;3.00;1.60;;;;;;;21.80;62.37;97854.50;4991483;28;20041;-63
2021/08/29 09:22:26;;;;;;;3.35;1.40;;;;;;;22.25;60.54;97856.66;4992922;28;20122;-60
2021/08/29 09:24:52;;;;;;;2.20;1.30;;;;;;;21.72;60.58;97850.72;4992020;28;20092;-61
2021/08/29 09:27:22;;;;;;;2.05;1.30;;;;;;;20.31;63.70;97847.78;4990096;28;20034;-61
2021/08/29 09:29:49;;;;;;;2.00;1.20;;;;;;;20.06;65.34;97854.25;4987750;28;20408;-63
2021/08/29 09:32:18;;;;;;;1.65;1.20;;;;;;;20.16;66.12;97851.69;4989786;28;20681;-62
2021/08/29 09:34:56;;;;;;;2.15;1.38;;;;;;;20.50;65.64;97841.78;4990052;28;20126;-62
2021/08/29 09:37:21;;;;;;;2.50;1.40;;;;;;;20.11;65.88;97841.50;4985762;28;20068;-63
2021/08/29 09:39:47;;;;;;;1.90;1.20;;;;;;;20.64;65.43;97842.44;4986731;28;20548;-62
2021/08/29 09:42:12;;;;;;;3.75;1.50;;;;;;;20.42;65.87;97844.25;4987746;28;20038;-64
2021/08/29 09:44:38;;;;;;;2.88;1.60;;;;;;;19.86;67.21;97842.66;4988169;28;20026;-62
2021/08/29 09:47:12;;;;;;;2.40;1.58;;;;;;;20.48;68.82;97842.88;5000780;28;20026;-62
2021/08/29 09:49:38;;;;;;;2.60;1.60;;;;;;;20.19;68.67;97846.16;4986630;28;20680;-62
2021/08/29 09:52:05;;;;;;;2.30;1.55;;;;;;;19.95;68.21;97846.38;4987800;28;20042;-62
2021/08/29 09:54:34;;;;;;;5.70;1.40;;;;;;;19.96;67.29;97846.25;4987164;28;20089;-62
2021/08/29 09:57:00;;;;;;;2.63;1.50;;;;;;;19.64;68.50;97838.22;4984888;28;20088;-63
2021/08/29 09:59:43;;;;;;;2.40;1.60;;;;;;;20.07;68.58;97842.72;4986245;28;20038;-61
2021/08/29 10:02:17;;;;;;;3.70;1.90;;;;;;;18.30;73.16;97836.22;4986664;28;20407;-62
2021/08/29 10:04:42;;;;;;;2.42;1.55;;;;;;;19.73;69.56;97834.88;4985226;28;20081;-64
2021/08/29 10:07:15;;;;;;;2.35;1.40;;;;;;;20.56;65.78;97835.94;4986352;28;20034;-61
2021/08/29 10:09:41;;;;;;;4.55;1.77;;;;;;;19.56;68.89;97830.09;4986888;28;20026;-62
2021/08/29 10:12:08;;;;;;;2.28;1.30;;;;;;;19.54;70.90;97832.03;4989359;28;20069;-63
2021/08/29 10:14:37;;;;;;;2.30;1.42;;;;;;;19.37;68.30;97830.69;4986655;28;20310;-63
2021/08/29 10:17:03;;;;;;;2.80;1.58;;;;;;;19.22;73.58;97824.81;4986184;28;20091;-62
2021/08/29 10:19:29;;;;;;;3.25;1.60;;;;;;;19.41;73.02;97829.50;4986316;28;20046;-61
2021/08/29 10:21:57;;;;;;;6.18;2.33;;;;;;;18.65;77.00;97830.06;4985177;28;20034;-61
2021/08/29 10:24:23;;;;;;;6.65;2.10;;;;;;;18.32;77.67;97827.34;4989666;28;20057;-63
2021/08/29 10:26:54;;;;;;;4.13;1.77;;;;;;;18.26;79.01;97829.50;4988188;28;20509;-60
2021/08/29 10:29:28;;;;;;;5.55;1.73;;;;;;;18.38;79.21;97832.16;4985434;28;20036;-60
2021/08/29 10:32:18;;;;;;;3.08;1.70;;;;;;;18.20;81.86;97829.97;4985490;28;20094;-63
2021/08/29 10:34:43;;;;;;;3.10;1.85;;;;;;;18.14;81.56;97837.47;4986315;28;20033;-62
2021/08/29 10:37:10;;;;;;;5.97;2.22;;;;;;;18.60;80.76;97829.59;4986086;28;20046;-64
2021/08/29 10:39:36;;;;;;;3.67;1.88;;;;;;;18.48;81.88;97830.50;4985348;28;20034;-62
2021/08/29 10:42:03;;;;;;;4.38;1.80;;;;;;;18.36;79.29;97827.03;4986877;28;20057;-60
2021/08/29 10:44:28;;;;;;;3.15;1.83;;;;;;;18.77;79.06;97833.56;4987029;28;20073;-61
2021/08/29 10:46:55;;;;;;;2.83;1.63;;;;;;;18.83;76.82;97825.19;4984608;28;20121;-60
2021/08/29 10:49:22;;;;;;;4.05;1.60;;;;;;;18.63;76.26;97820.56;4984348;28;20029;-61
2021/08/29 10:51:51;;;;;;;2.58;1.65;;;;;;;18.74;75.15;97822.41;4985771;28;20053;-62
2021/08/29 10:54:18;;;;;;;2.33;1.50;;;;;;;19.26;75.55;97813.91;4985391;28;20033;-61
2021/08/29 10:56:44;;;;;;;2.10;1.35;;;;;;;19.41;73.94;97818.94;4984675;28;20461;-62
2021/08/29 10:59:10;;;;;;;2.67;1.60;;;;;;;19.42;75.58;97818.78;4986464;28;20162;-62
2021/08/29 11:01:46;;;;;;;2.35;1.33;;;;;;;19.69;73.87;97816.72;4983501;28;20137;-62
2021/08/29 11:04:17;;;;;;;2.40;1.50;;;;;;;19.78;72.08;97814.19;4983716;28;20820;-60
2021/08/29 11:06:47;;;;;;;2.35;1.50;;;;;;;20.46;66.27;97811.22;4984172;28;20097;-61
2021/08/29 11:09:37;;;;;;;2.72;1.80;;;;;;;20.51;63.85;97816.13;4987386;28;20033;-60
2021/08/29 11:12:26;;;;;;;1.80;1.20;;;;;;;20.42;65.51;97812.47;4985080;28;20463;-60
2021/08/29 11:14:57;;;;;;;2.83;1.80;;;;;;;21.49;62.03;97801.53;4985123;28;20046;-61
2021/08/29 11:17:25;;;;;;;3.72;1.52;;;;;;;20.73;66.41;97800.13;4985516;28;20572;-60
2021/08/29 11:19:52;;;;;;;2.10;1.30;;;;;;;20.57;65.70;97805.00;4986242;28;20033;-62
2021/08/29 11:22:20;;;;;;;1.90;1.20;;;;;;;20.70;66.29;97800.38;4984473;28;20528;-61
2021/08/29 11:25:19;;;;;;;1.90;1.30;;;;;;;20.60;66.95;97797.69;4985895;28;20030;-62
2021/08/29 11:28:03;;;;;;;1.80;1.10;;;;;;;20.04;67.28;97803.25;4984018;28;20037;-61